Time;durP1;ratioP1;P1;durP2;ratioP2;P2;SDS_P1;SDS_P2;PMS_P1;PMS_P2;Temp;Humidity;BMP_temperature;BMP_pressure;BME280_temperature;BME280_humidity;BME280_pressure;Samples;Min_cycle;Max_cycle;Signal;HPM_P1;HPM_P2
2022/05/03 00:00:00;;;;;;;9.82;2.53;;;;;;;9.63;52.94;100643.72;2090122;28;20599;-67
2022/05/03 00:01:19;;;;;;;3.88;2.53;;;;;;;9.60;53.07;100638.88;2096716;28;20314;-67
2022/05/03 00:02:30;;;;;;;6.65;2.78;;;;;;;9.60;53.28;100640.75;2082739;28;20313;-67
2022/05/03 00:03:54;;;;;;;5.30;2.60;;;;;;;9.61;53.99;100637.00;2080779;28;20818;-68
2022/05/03 00:05:12;;;;;;;6.95;2.97;;;;;;;9.63;53.18;100638.34;2083285;28;20297;-68
2022/05/03 00:06:28;;;;;;;6.53;3.10;;;;;;;9.69;53.27;100644.53;2074095;28;20301;-67
2022/05/03 00:07:53;;;;;;;4.60;2.72;;;;;;;9.66;53.64;100639.69;2082138;28;20299;-67
2022/05/03 00:09:10;;;;;;;5.55;2.70;;;;;;;9.66;53.86;100632.44;2070895;28;20295;-67
2022/05/03 00:10:24;;;;;;;7.63;2.90;;;;;;;9.68;53.49;100634.88;2076848;28;20280;-67
2022/05/03 00:11:40;;;;;;;5.07;2.83;;;;;;;9.68;53.11;100624.13;2096648;28;20290;-67
2022/05/03 00:12:51;;;;;;;10.38;2.90;;;;;;;9.69;53.49;100628.41;2093640;28;20295;-67
2022/05/03 00:14:10;;;;;;;4.93;2.60;;;;;;;9.67;53.59;100625.19;2089187;28;20294;-67
2022/05/03 00:15:16;;;;;;;6.35;2.90;;;;;;;9.67;53.19;100630.56;2088124;28;20295;-67
2022/05/03 00:16:19;;;;;;;6.85;2.88;;;;;;;9.64;53.76;100623.03;2094249;28;20279;-67
2022/05/03 00:17:22;;;;;;;4.70;2.58;;;;;;;9.61;53.29;100626.25;2096457;28;20278;-67
2022/05/03 00:18:25;;;;;;;7.00;2.85;;;;;;;9.60;54.08;100625.47;2096006;28;20848;-67
2022/05/03 00:19:36;;;;;;;6.10;2.70;;;;;;;9.62;53.66;100628.69;2088149;28;20295;-67
2022/05/03 00:20:43;;;;;;;6.20;2.92;;;;;;;9.62;53.80;100627.88;2089607;28;20363;-67
2022/05/03 00:21:46;;;;;;;4.38;2.67;;;;;;;9.64;53.71;100629.19;2088925;28;20908;-66
2022/05/03 00:22:54;;;;;;;5.30;3.00;;;;;;;9.64;53.88;100628.41;2088295;28;20367;-67
2022/05/03 00:23:59;;;;;;;7.13;2.97;;;;;;;9.64;53.42;100631.09;2096356;28;20703;-67
2022/05/03 00:25:01;;;;;;;6.68;3.10;;;;;;;9.54;54.26;100628.41;2095866;28;20293;-67
2022/05/03 00:26:10;;;;;;;4.82;2.67;;;;;;;9.56;54.00;100627.09;2088866;28;20283;-67
2022/05/03 00:27:15;;;;;;;5.28;2.80;;;;;;;9.55;54.47;100622.78;2088429;28;20275;-66
2022/05/03 00:28:21;;;;;;;4.47;2.47;;;;;;;9.52;53.96;100639.44;2096391;28;20287;-67
2022/05/03 00:29:24;;;;;;;8.20;3.25;;;;;;;9.54;53.74;100621.16;2096344;28;20310;-67
2022/05/03 00:30:27;;;;;;;6.57;2.80;;;;;;;9.56;54.12;100628.97;2087833;28;20362;-67
2022/05/03 00:31:32;;;;;;;4.07;2.55;;;;;;;9.58;54.07;100626.78;2080246;28;20958;-67
2022/05/03 00:32:40;;;;;;;4.65;2.35;;;;;;;9.58;54.40;100627.59;2072075;28;20297;-67
2022/05/03 00:33:44;;;;;;;5.85;2.65;;;;;;;9.59;53.83;100623.06;2081161;28;20901;-67
2022/05/03 00:34:50;;;;;;;5.90;2.95;;;;;;;9.59;54.03;100625.75;2087788;28;20326;-67
2022/05/03 00:35:53;;;;;;;3.45;2.38;;;;;;;9.65;54.45;100627.34;2080436;28;20280;-67
2022/05/03 00:36:58;;;;;;;10.63;2.83;;;;;;;9.66;54.03;100618.22;2087677;28;20783;-67
2022/05/03 00:38:00;;;;;;;5.07;2.83;;;;;;;9.65;54.21;100622.78;2088464;28;20298;-67
2022/05/03 00:39:03;;;;;;;3.90;2.65;;;;;;;9.64;54.27;100620.34;2087578;28;20295;-67
2022/05/03 00:40:11;;;;;;;8.38;2.72;;;;;;;9.62;54.25;100612.59;2080219;28;20288;-67
2022/05/03 00:41:32;;;;;;;9.20;3.00;;;;;;;9.64;54.31;100625.72;2081413;28;20287;-68
2022/05/03 00:43:17;;;;;;;4.85;2.38;;;;;;;9.67;54.43;100622.50;2074255;28;20291;-67
2022/05/03 00:44:59;;;;;;;5.88;2.60;;;;;;;9.63;53.95;100616.06;2082636;28;20279;-67
2022/05/03 00:46:14;;;;;;;4.53;2.60;;;;;;;9.59;54.66;100623.06;2094329;28;20643;-68
2022/05/03 00:47:20;;;;;;;5.95;2.50;;;;;;;9.57;54.50;100626.00;2096893;28;21154;-67
2022/05/03 00:49:01;;;;;;;4.55;2.83;;;;;;;9.58;54.40;100616.06;2096396;28;20274;-67
2022/05/03 00:50:11;;;;;;;3.80;2.30;;;;;;;9.59;54.82;100612.31;2087932;28;20756;-67
2022/05/03 00:51:26;;;;;;;6.47;2.95;;;;;;;9.57;54.58;100615.25;2080895;28;20280;-67
2022/05/03 00:52:47;;;;;;;3.92;2.33;;;;;;;9.55;54.86;100621.97;2081751;28;20033;-67
2022/05/03 00:54:05;;;;;;;6.70;2.60;;;;;;;9.56;54.68;100615.53;2087602;28;20299;-67
2022/05/03 00:55:59;;;;;;;4.32;2.50;;;;;;;9.54;54.92;100615.00;2088047;28;20314;-67
2022/05/03 00:57:25;;;;;;;6.03;2.60;;;;;;;9.50;54.70;100620.91;2077747;28;20276;-68
2022/05/03 00:58:56;;;;;;;5.82;2.58;;;;;;;9.47;55.64;100613.38;2082890;28;20302;-66
2022/05/03 01:00:08;;;;;;;4.13;2.22;;;;;;;9.44;55.16;100610.44;2080148;28;20295;-67
2022/05/03 01:01:36;;;;;;;7.13;2.55;;;;;;;9.46;55.70;100608.31;2089045;28;20040;-67
2022/05/03 01:03:09;;;;;;;5.45;2.65;;;;;;;9.49;55.05;100613.94;2095880;28;20857;-68
2022/05/03 01:04:25;;;;;;;4.10;2.60;;;;;;;9.51;54.82;100611.78;2087685;28;20056;-67
2022/05/03 01:05:42;;;;;;;9.95;2.97;;;;;;;9.47;55.73;100610.72;2083665;28;20298;-68
2022/05/03 01:07:05;;;;;;;4.85;2.58;;;;;;;9.47;55.35;100604.53;2096171;28;20279;-68
2022/05/03 01:08:39;;;;;;;9.55;2.75;;;;;;;9.50;55.36;100615.53;2095892;28;20283;-67
2022/05/03 01:09:47;;;;;;;6.10;2.65;;;;;;;9.45;55.49;100609.38;2096387;28;20321;-69
2022/05/03 01:11:10;;;;;;;6.82;2.50;;;;;;;9.46;55.67;100605.63;2095730;28;20044;-68
2022/05/03 01:12:36;;;;;;;6.22;2.60;;;;;;;9.43;55.31;100598.91;2095976;28;20325;-68
2022/05/03 01:13:47;;;;;;;5.35;3.08;;;;;;;9.47;55.92;100605.34;2095798;28;20290;-68
2022/05/03 01:15:03;;;;;;;6.32;2.47;;;;;;;9.44;55.45;100605.88;2089726;28;20295;-68
2022/05/03 01:16:19;;;;;;;5.00;2.40;;;;;;;9.45;55.47;100601.31;2092960;28;20271;-68
2022/05/03 01:17:54;;;;;;;6.57;2.60;;;;;;;9.48;55.63;100603.47;2095901;28;20291;-67
2022/05/03 01:19:16;;;;;;;4.93;2.47;;;;;;;9.45;55.61;100596.75;2095866;28;20282;-67
2022/05/03 01:20:43;;;;;;;5.70;2.42;;;;;;;9.45;56.08;100602.09;2090789;28;20279;-67
2022/05/03 01:22:43;;;;;;;4.72;2.35;;;;;;;9.43;55.67;100600.78;2090212;28;20310;-67
2022/05/03 01:23:51;;;;;;;5.10;2.50;;;;;;;9.39;55.89;100594.34;2070587;28;20056;-67
2022/05/03 01:25:08;;;;;;;6.28;2.60;;;;;;;9.44;55.99;100597.03;2092580;28;20286;-67
2022/05/03 01:26:25;;;;;;;6.50;2.60;;;;;;;9.43;55.95;100593.53;2094449;28;20310;-67
2022/05/03 01:27:49;;;;;;;5.38;2.60;;;;;;;9.44;56.08;100605.88;2087770;28;20275;-67
2022/05/03 01:28:59;;;;;;;3.58;2.40;;;;;;;9.42;55.65;100602.66;2088273;28;20353;-67
2022/05/03 01:30:06;;;;;;;5.57;2.30;;;;;;;9.40;56.12;100588.72;2087729;28;20313;-67
2022/05/03 01:31:11;;;;;;;5.15;2.67;;;;;;;9.44;56.01;100588.97;2087228;28;20290;-67
2022/05/03 01:32:19;;;;;;;7.97;3.42;;;;;;;9.43;56.46;100593.53;2087409;28;20288;-68
2022/05/03 01:33:45;;;;;;;6.40;2.92;;;;;;;9.41;56.20;100603.72;2087716;28;20335;-68
2022/05/03 01:34:54;;;;;;;4.47;2.40;;;;;;;9.42;56.52;100601.84;2095134;28;20056;-67
2022/05/03 01:36:01;;;;;;;5.93;2.60;;;;;;;9.44;55.63;100600.50;2089692;28;20301;-68
2022/05/03 01:37:24;;;;;;;4.72;2.67;;;;;;;9.45;55.91;100602.09;2098562;28;20044;-68
2022/05/03 01:38:53;;;;;;;5.20;2.47;;;;;;;9.42;55.81;100607.22;2097632;28;20032;-68
2022/05/03 01:40:30;;;;;;;7.88;2.70;;;;;;;9.41;56.24;100602.94;2085686;28;20856;-68
2022/05/03 01:41:59;;;;;;;5.70;3.05;;;;;;;9.40;55.81;100599.44;2091758;28;20048;-68
2022/05/03 01:43:15;;;;;;;4.90;2.20;;;;;;;9.40;56.21;100609.38;2094675;28;20267;-68
2022/05/03 01:44:28;;;;;;;4.25;2.60;;;;;;;9.40;56.03;100596.75;2096106;28;20048;-68
2022/05/03 01:45:32;;;;;;;5.20;2.40;;;;;;;9.45;56.13;100604.00;2098010;28;20769;-69
2022/05/03 01:46:41;;;;;;;4.97;2.50;;;;;;;9.47;56.50;100605.34;2082882;28;20287;-70
2022/05/03 01:48:07;;;;;;;4.18;2.60;;;;;;;9.49;56.31;100607.78;2085796;28;20335;-70
2022/05/03 01:51:00;;;;;;;8.10;2.63;;;;;;;9.46;56.35;100605.63;2086646;28;20619;-69
2022/05/03 01:52:41;;;;;;;5.35;2.70;;;;;;;9.44;56.42;100611.25;2093521;28;20041;-68
2022/05/03 01:53:56;;;;;;;5.53;2.55;;;;;;;9.43;56.17;100603.47;2099605;28;20800;-83
2022/05/03 01:55:25;;;;;;;5.35;2.45;;;;;;;9.36;56.24;100609.09;2091766;28;20299;-84
2022/05/03 01:56:56;;;;;;;5.90;2.80;;;;;;;9.36;56.61;100610.97;2099362;28;20349;-84
2022/05/03 01:58:10;;;;;;;5.60;2.35;;;;;;;9.37;56.78;100609.91;2099493;28;20285;-76
2022/05/03 01:59:38;;;;;;;4.25;2.22;;;;;;;9.39;56.66;100603.19;2098153;28;20055;-75
2022/05/03 02:00:55;;;;;;;5.63;2.47;;;;;;;9.42;56.00;100604.53;2099018;28;20282;-75
2022/05/03 02:02:15;;;;;;;5.93;2.38;;;;;;;9.40;56.60;100602.13;2098840;28;20270;-75
2022/05/03 02:03:40;;;;;;;5.25;2.50;;;;;;;9.35;56.53;100610.16;2098523;28;20286;-75
2022/05/03 02:05:15;;;;;;;4.60;2.50;;;;;;;9.33;56.96;100606.97;2098479;28;20286;-76
2022/05/03 02:06:39;;;;;;;4.78;2.85;;;;;;;9.35;56.94;100606.69;2100259;28;20051;-75
2022/05/03 02:07:55;;;;;;;3.80;2.60;;;;;;;9.36;57.00;100606.41;2097737;28;20282;-75
2022/05/03 02:09:04;;;;;;;4.20;2.55;;;;;;;9.42;56.09;100607.22;2089200;28;20291;-74
2022/05/03 02:10:18;;;;;;;3.97;2.40;;;;;;;9.41;56.46;100608.31;2091499;28;20290;-74
2022/05/03 02:11:48;;;;;;;14.15;2.70;;;;;;;9.46;56.33;100611.78;2098739;28;20286;-74
2022/05/03 02:13:11;;;;;;;6.88;2.45;;;;;;;9.49;56.07;100602.41;2094341;28;20283;-75
2022/05/03 02:14:44;;;;;;;4.25;2.40;;;;;;;9.47;56.78;100605.34;2098741;28;20282;-74
2022/05/03 02:15:55;;;;;;;3.72;2.40;;;;;;;9.54;56.35;100604.25;2097388;28;20299;-74
2022/05/03 02:17:00;;;;;;;5.45;3.00;;;;;;;9.54;56.58;100612.31;2099101;28;20286;-75
2022/05/03 02:18:24;;;;;;;5.75;2.58;;;;;;;9.54;56.26;100609.63;2098811;28;20051;-74
2022/05/03 02:19:54;;;;;;;4.47;2.80;;;;;;;9.59;56.54;100609.63;2099497;28;20289;-73
2022/05/03 02:21:17;;;;;;;5.22;2.33;;;;;;;9.64;56.84;100610.41;2099821;28;20263;-73
2022/05/03 02:22:49;;;;;;;4.95;2.35;;;;;;;9.63;56.71;100602.66;2099131;28;20305;-73
2022/05/03 02:24:19;;;;;;;5.07;2.60;;;;;;;9.66;56.50;100612.84;2098653;28;20785;-73
2022/05/03 02:25:49;;;;;;;4.75;2.67;;;;;;;9.69;56.50;100609.63;2091510;28;20938;-73
2022/05/03 02:27:11;;;;;;;7.15;2.35;;;;;;;9.73;56.20;100605.31;2086756;28;20287;-72
2022/05/03 02:28:27;;;;;;;5.28;2.47;;;;;;;9.73;56.27;100608.00;2094099;28;20284;-72
2022/05/03 02:29:41;;;;;;;5.53;2.67;;;;;;;9.73;56.44;100605.31;2097271;28;20352;-72
2022/05/03 02:30:50;;;;;;;7.45;2.83;;;;;;;9.79;56.34;100612.28;2097912;28;20052;-72
2022/05/03 02:32:19;;;;;;;6.38;2.63;;;;;;;9.78;56.24;100612.56;2099805;28;20285;-72
2022/05/03 02:33:29;;;;;;;3.47;2.50;;;;;;;9.74;55.95;100613.09;2090509;28;20274;-72
2022/05/03 02:34:33;;;;;;;5.93;2.70;;;;;;;9.80;56.22;100613.88;2099275;28;20283;-72
2022/05/03 02:35:44;;;;;;;4.95;2.25;;;;;;;9.82;56.52;100610.94;2091086;28;20033;-73
2022/05/03 02:37:06;;;;;;;9.35;2.80;;;;;;;9.79;56.34;100606.91;2101612;28;20290;-73
2022/05/03 02:38:12;;;;;;;4.05;2.42;;;;;;;9.74;56.06;100610.41;2101768;28;20281;-72
2022/05/03 02:39:28;;;;;;;5.40;2.45;;;;;;;9.75;56.41;100605.84;2100457;28;20289;-72
2022/05/03 02:40:32;;;;;;;5.57;2.60;;;;;;;9.75;56.15;100611.22;2100594;28;20285;-72
2022/05/03 02:41:41;;;;;;;4.68;2.40;;;;;;;9.79;56.44;100611.47;2099810;28;20282;-73
2022/05/03 02:42:45;;;;;;;4.78;2.40;;;;;;;9.70;56.09;100601.28;2090382;28;20349;-72
2022/05/03 02:43:51;;;;;;;5.65;2.58;;;;;;;9.59;56.34;100604.28;2101375;28;20279;-73
2022/05/03 02:45:01;;;;;;;4.47;2.70;;;;;;;9.60;56.22;100605.88;2082592;28;20279;-73
2022/05/03 02:46:18;;;;;;;4.50;2.50;;;;;;;9.59;56.70;100612.31;2085416;28;20295;-72
2022/05/03 02:47:31;;;;;;;7.60;2.65;;;;;;;9.57;56.70;100603.72;2101337;28;20289;-73
2022/05/03 02:49:03;;;;;;;5.43;2.50;;;;;;;9.60;56.41;100603.19;2094826;28;20779;-71
2022/05/03 02:50:08;;;;;;;4.93;2.47;;;;;;;9.61;56.81;100604.78;2100274;28;20286;-73
2022/05/03 02:51:14;;;;;;;4.90;2.30;;;;;;;9.55;56.79;100605.88;2101782;28;20044;-72
2022/05/03 02:52:49;;;;;;;6.45;2.80;;;;;;;9.54;56.99;100599.69;2099863;28;20289;-72
2022/05/03 02:54:00;;;;;;;6.30;2.65;;;;;;;9.54;56.83;100604.25;2092030;28;20301;-75
2022/05/03 02:55:40;;;;;;;4.40;2.47;;;;;;;9.55;57.25;100606.66;2078525;28;20298;-74
2022/05/03 02:56:56;;;;;;;6.95;2.65;;;;;;;9.52;56.59;100608.03;2099308;28;20282;-74
2022/05/03 02:58:35;;;;;;;6.28;2.58;;;;;;;9.56;56.90;100607.50;2101468;28;20032;-73
2022/05/03 03:03:04;;;;;;;7.20;2.45;;;;;;;9.61;57.34;100608.25;2099915;28;20298;-73
2022/05/03 03:04:12;;;;;;;4.30;2.80;;;;;;;9.65;57.21;100605.88;2100609;28;20293;-74
2022/05/03 03:05:20;;;;;;;5.60;2.80;;;;;;;9.66;57.16;100608.28;2092613;28;20028;-73
2022/05/03 03:06:30;;;;;;;5.30;2.88;;;;;;;9.73;56.78;100610.66;2099121;28;20722;-73
2022/05/03 03:07:41;;;;;;;5.03;2.72;;;;;;;9.76;57.12;100612.81;2100630;28;20317;-72
2022/05/03 03:08:48;;;;;;;5.60;2.58;;;;;;;9.77;57.17;100610.94;2100229;28;20043;-73
2022/05/03 03:10:02;;;;;;;6.63;2.40;;;;;;;9.78;56.79;100610.69;2101495;28;20294;-74
2022/05/03 03:11:09;;;;;;;;;;;;;;;9.78;57.33;100607.19;2099752;28;20040;-74
2022/05/03 03:12:14;;;;;;;6.00;2.88;;;;;;;9.74;56.99;100612.28;2085266;28;19917;-75
2022/05/03 03:13:42;;;;;;;4.13;2.60;;;;;;;9.77;56.99;100609.03;2086987;28;20291;-78
2022/05/03 03:15:07;;;;;;;5.57;3.00;;;;;;;9.69;57.01;100599.69;2100935;28;20287;-74
2022/05/03 03:16:13;;;;;;;4.93;2.67;;;;;;;9.66;56.82;100608.28;2098775;28;20296;-74
2022/05/03 03:17:28;;;;;;;4.13;2.80;;;;;;;9.61;56.83;100602.91;2083724;28;20040;-84
2022/05/03 03:18:33;;;;;;;5.68;2.80;;;;;;;9.62;57.35;100607.22;2094554;28;20306;-75
2022/05/03 03:19:38;;;;;;;5.45;2.50;;;;;;;9.62;57.31;100607.22;2090881;28;21022;-73
2022/05/03 03:20:53;;;;;;;4.32;2.92;;;;;;;9.68;57.23;100605.34;2084717;28;21777;-78
2022/05/03 03:21:59;;;;;;;4.93;2.53;;;;;;;9.67;57.54;100609.88;2100393;28;20286;-68
2022/05/03 03:23:07;;;;;;;5.00;2.58;;;;;;;9.68;57.04;100610.69;2099875;28;20685;-68
2022/05/03 03:24:15;;;;;;;3.90;2.70;;;;;;;9.68;57.49;100610.69;2100099;28;20062;-68
2022/05/03 03:25:27;;;;;;;6.60;2.80;;;;;;;9.65;57.13;100608.56;2100420;28;20296;-69
2022/05/03 03:26:30;;;;;;;5.53;2.95;;;;;;;9.69;57.40;100612.31;2093358;28;20287;-69
2022/05/03 03:27:36;;;;;;;4.97;2.80;;;;;;;9.74;57.54;100604.22;2092582;28;20291;-68
2022/05/03 03:28:40;;;;;;;6.40;3.22;;;;;;;9.83;57.30;100618.69;2100727;28;20655;-68
2022/05/03 03:29:44;;;;;;;6.30;2.83;;;;;;;9.89;56.94;100614.13;2082627;28;20307;-68
2022/05/03 03:30:58;;;;;;;5.55;2.83;;;;;;;9.92;56.98;100611.69;2070721;28;20277;-68
2022/05/03 03:32:04;;;;;;;6.05;2.85;;;;;;;9.93;56.90;100618.69;2077224;28;20697;-68
2022/05/03 03:33:12;;;;;;;7.95;2.80;;;;;;;9.98;56.55;100610.63;2086792;28;20287;-69
2022/05/03 03:34:20;;;;;;;4.72;2.53;;;;;;;9.98;56.07;100612.50;2100607;28;20440;-68
2022/05/03 03:35:26;;;;;;;6.13;2.78;;;;;;;10.00;56.34;100617.63;2090746;28;20299;-68
2022/05/03 03:36:31;;;;;;;5.13;2.65;;;;;;;9.97;56.32;100610.91;2090565;28;20302;-68
2022/05/03 03:37:34;;;;;;;3.97;2.78;;;;;;;10.02;56.16;100615.44;2099000;28;20762;-69
2022/05/03 03:38:43;;;;;;;5.03;2.40;;;;;;;10.02;56.68;100610.88;2100692;28;20290;-69
2022/05/03 03:39:45;;;;;;;7.65;2.78;;;;;;;10.09;56.67;100610.59;2092126;28;20299;-69
2022/05/03 03:40:51;;;;;;;6.15;2.60;;;;;;;10.07;55.84;100612.75;2075875;28;20300;-69
2022/05/03 03:41:55;;;;;;;4.63;2.67;;;;;;;10.05;56.52;100614.91;2092506;28;20335;-69
2022/05/03 03:42:58;;;;;;;4.53;2.67;;;;;;;10.02;56.08;100610.06;2102002;28;20293;-69
2022/05/03 03:44:03;;;;;;;5.75;3.10;;;;;;;9.99;56.14;100616.78;2091994;28;20832;-69
2022/05/03 03:45:11;;;;;;;4.15;2.70;;;;;;;9.97;56.54;100611.69;2085931;28;20272;-69
2022/05/03 03:46:16;;;;;;;4.93;2.78;;;;;;;9.97;56.41;100611.69;2099946;28;20638;-69
2022/05/03 03:47:20;;;;;;;5.95;2.70;;;;;;;9.98;56.21;100609.81;2091599;28;20291;-69
2022/05/03 03:48:22;;;;;;;5.90;2.95;;;;;;;10.02;56.06;100610.06;2092697;28;20816;-69
2022/05/03 03:49:29;;;;;;;3.95;2.78;;;;;;;10.09;56.35;100607.91;2091520;28;20283;-69
2022/05/03 03:50:47;;;;;;;7.55;3.10;;;;;;;10.08;56.09;100599.03;2087099;28;20310;-69
2022/05/03 03:51:51;;;;;;;7.68;2.80;;;;;;;10.08;56.22;100608.97;2093685;28;20290;-69
2022/05/03 03:52:56;;;;;;;7.50;3.03;;;;;;;10.12;56.31;100600.13;2091450;28;20480;-69
2022/05/03 03:53:59;;;;;;;5.75;2.70;;;;;;;10.14;56.01;100600.63;2099414;28;20657;-69
2022/05/03 03:55:05;;;;;;;7.82;2.97;;;;;;;10.20;56.37;100599.53;2099640;28;20290;-69
2022/05/03 03:56:06;;;;;;;4.30;2.67;;;;;;;10.25;55.52;100598.72;2082581;28;20716;-68
2022/05/03 03:57:09;;;;;;;6.95;2.75;;;;;;;10.25;56.34;100601.41;2084289;28;20303;-69
2022/05/03 03:58:13;;;;;;;4.32;2.55;;;;;;;10.21;55.81;100605.69;2092258;28;20283;-68
2022/05/03 03:59:19;;;;;;;3.92;2.72;;;;;;;10.24;56.15;100604.34;2091997;28;20287;-69
2022/05/03 04:00:25;;;;;;;6.25;2.78;;;;;;;10.33;55.92;100605.44;2077592;28;20289;-69
2022/05/03 04:01:27;;;;;;;4.32;2.70;;;;;;;10.36;55.56;100602.97;2083602;28;20612;-69
2022/05/03 04:02:35;;;;;;;5.72;2.80;;;;;;;10.38;55.59;100602.72;2092087;28;20347;-69
2022/05/03 04:03:40;;;;;;;4.18;2.45;;;;;;;10.41;56.03;100602.97;2099225;28;20296;-68
2022/05/03 04:04:44;;;;;;;4.38;2.40;;;;;;;10.40;55.00;100600.53;2090971;28;20420;-69
2022/05/03 04:05:49;;;;;;;6.60;2.92;;;;;;;10.40;55.06;100604.06;2090906;28;20286;-69
2022/05/03 04:06:51;;;;;;;4.13;2.95;;;;;;;10.43;55.82;100603.50;2091748;28;20303;-68
2022/05/03 04:07:54;;;;;;;4.43;2.50;;;;;;;10.43;55.61;100606.19;2084527;28;20288;-68
2022/05/03 04:08:56;;;;;;;6.95;2.85;;;;;;;10.49;55.49;100604.25;2099481;28;20305;-69
2022/05/03 04:10:00;;;;;;;8.40;2.78;;;;;;;10.52;55.32;100603.72;2100055;28;20282;-69
2022/05/03 04:11:16;;;;;;;3.83;2.35;;;;;;;10.65;55.19;100599.63;2099330;28;20282;-70
2022/05/03 04:12:24;;;;;;;7.15;2.70;;;;;;;10.71;54.71;100601.19;2085745;28;20287;-69
2022/05/03 04:13:28;;;;;;;6.05;2.60;;;;;;;10.73;54.69;100604.41;2067851;28;20466;-69
2022/05/03 04:14:36;;;;;;;4.85;2.70;;;;;;;10.78;54.69;100612.47;2085621;28;20284;-69
2022/05/03 04:15:42;;;;;;;6.32;2.85;;;;;;;10.80;54.86;100612.97;2099533;28;20963;-69
2022/05/03 04:16:51;;;;;;;4.22;2.70;;;;;;;10.85;54.87;100615.66;2091495;28;20290;-69
2022/05/03 04:17:57;;;;;;;5.97;2.80;;;;;;;10.90;54.23;100612.91;2099448;28;20047;-68
2022/05/03 04:19:01;;;;;;;4.95;2.63;;;;;;;10.93;53.83;100608.06;2100290;28;20294;-68
2022/05/03 04:20:06;;;;;;;4.63;2.70;;;;;;;10.84;54.48;100616.69;2099974;28;21737;-68
2022/05/03 04:21:15;;;;;;;4.35;2.65;;;;;;;10.88;54.59;100617.78;2090754;28;20830;-69
2022/05/03 04:22:36;;;;;;;5.72;2.90;;;;;;;11.01;54.43;100610.16;2100177;28;20863;-68
2022/05/03 04:23:41;;;;;;;5.45;2.67;;;;;;;11.08;54.49;100613.34;2100430;28;20301;-69
2022/05/03 04:24:44;;;;;;;4.93;2.70;;;;;;;11.06;54.37;100613.59;2091013;28;20064;-68
2022/05/03 04:25:48;;;;;;;6.10;2.75;;;;;;;11.03;54.11;100616.06;2083954;28;20283;-68
2022/05/03 04:26:56;;;;;;;8.45;3.00;;;;;;;11.04;53.98;100620.38;2082539;28;20291;-68
2022/05/03 04:27:59;;;;;;;4.53;2.72;;;;;;;11.05;54.50;100611.22;2084864;28;20419;-69
2022/05/03 04:29:04;;;;;;;6.38;2.80;;;;;;;11.06;54.61;100612.81;2092440;28;20275;-69
2022/05/03 04:30:13;;;;;;;5.68;3.15;;;;;;;11.08;54.52;100618.72;2092367;28;20282;-69
2022/05/03 04:31:15;;;;;;;4.95;3.25;;;;;;;11.14;53.97;100609.53;2092521;28;20287;-69
2022/05/03 04:32:17;;;;;;;5.72;2.95;;;;;;;11.15;54.56;100616.50;2100137;28;20777;-68
2022/05/03 04:33:22;;;;;;;9.05;2.90;;;;;;;11.18;54.34;100610.56;2083459;28;20296;-69
2022/05/03 04:34:25;;;;;;;7.93;3.17;;;;;;;11.18;54.36;100613.25;2091260;28;20786;-69
2022/05/03 04:35:29;;;;;;;7.38;3.22;;;;;;;11.32;54.42;100611.53;2095674;28;20287;-69
2022/05/03 04:36:35;;;;;;;5.05;3.00;;;;;;;11.39;53.66;100611.22;2078971;28;20308;-69
2022/05/03 04:37:38;;;;;;;4.90;2.80;;;;;;;11.39;53.79;100621.19;2092134;28;20283;-69
2022/05/03 04:38:44;;;;;;;5.00;2.70;;;;;;;11.39;53.71;100613.91;2100797;28;20892;-69
2022/05/03 04:39:46;;;;;;;5.53;2.70;;;;;;;11.40;54.07;100617.41;2100611;28;20290;-69
2022/05/03 04:40:49;;;;;;;7.20;2.90;;;;;;;11.44;53.77;100618.44;2100127;28;20297;-69
2022/05/03 04:41:53;;;;;;;4.25;2.90;;;;;;;11.42;53.83;100613.34;2098100;28;20293;-69
2022/05/03 04:42:55;;;;;;;5.57;2.78;;;;;;;11.50;53.88;100628.06;2091307;28;20366;-69
2022/05/03 04:43:58;;;;;;;5.30;2.90;;;;;;;11.49;53.71;100615.69;2083619;28;20288;-69
2022/05/03 04:45:06;;;;;;;6.35;2.80;;;;;;;11.48;53.43;100624.88;2091972;28;21878;-69
2022/05/03 04:46:16;;;;;;;6.43;3.08;;;;;;;11.54;53.76;100619.16;2093257;28;20302;-69
2022/05/03 04:47:21;;;;;;;4.78;2.58;;;;;;;11.59;53.86;100619.09;2092445;28;20302;-69
2022/05/03 04:48:25;;;;;;;6.15;2.70;;;;;;;11.61;53.95;100624.22;2098842;28;20298;-68
2022/05/03 04:49:31;;;;;;;6.85;2.90;;;;;;;11.76;53.24;100625.97;2100271;28;20297;-69
2022/05/03 04:50:38;;;;;;;6.18;2.70;;;;;;;11.95;52.91;100618.00;2090633;28;20370;-71
2022/05/03 04:51:40;;;;;;;3.92;2.67;;;;;;;12.08;52.49;100624.59;2086012;28;20287;-68
2022/05/03 04:52:45;;;;;;;4.97;2.70;;;;;;;12.09;52.29;100621.59;2090074;28;20288;-70
2022/05/03 04:53:48;;;;;;;5.63;3.05;;;;;;;12.11;52.64;100622.13;2098133;28;20294;-69
2022/05/03 04:54:51;;;;;;;5.32;2.85;;;;;;;12.19;52.64;100624.16;2096372;28;20277;-69
2022/05/03 04:55:59;;;;;;;4.60;3.05;;;;;;;12.19;52.11;100620.66;2096069;28;20357;-69
2022/05/03 04:57:07;;;;;;;5.63;2.78;;;;;;;12.16;52.05;100621.25;2097935;28;20278;-69
2022/05/03 04:58:11;;;;;;;6.25;3.00;;;;;;;12.20;51.96;100624.97;2095910;28;20706;-69
2022/05/03 04:59:14;;;;;;;8.05;3.15;;;;;;;12.17;51.92;100617.44;2097388;28;20325;-68
2022/05/03 05:00:19;;;;;;;9.15;2.90;;;;;;;12.10;52.25;100617.78;2088985;28;20287;-69
2022/05/03 05:01:22;;;;;;;5.35;2.95;;;;;;;12.07;52.36;100626.44;2083601;28;20299;-68
2022/05/03 05:02:25;;;;;;;5.50;2.90;;;;;;;12.01;52.26;100622.22;2090227;28;20615;-69
2022/05/03 05:03:30;;;;;;;7.93;2.92;;;;;;;11.98;52.77;100625.47;2095702;28;20338;-68
2022/05/03 05:04:32;;;;;;;6.45;2.97;;;;;;;11.99;52.75;100627.91;2090865;28;20297;-69
2022/05/03 05:05:40;;;;;;;8.60;3.15;;;;;;;11.98;52.96;100625.47;2097093;28;20653;-68
2022/05/03 05:06:50;;;;;;;5.57;3.05;;;;;;;11.94;52.86;100622.56;2098910;28;20286;-69
2022/05/03 05:07:53;;;;;;;8.00;2.90;;;;;;;11.88;52.94;100630.97;2098257;28;20282;-69
2022/05/03 05:09:00;;;;;;;5.00;3.10;;;;;;;11.90;52.95;100620.72;2104431;28;20993;-69
2022/05/03 05:10:26;;;;;;;5.75;2.83;;;;;;;11.91;53.16;100625.81;2089314;28;20290;-69
2022/05/03 05:11:34;;;;;;;4.20;2.95;;;;;;;11.94;53.77;100627.94;2087215;28;20389;-69
2022/05/03 05:12:39;;;;;;;7.97;3.33;;;;;;;11.98;53.40;100628.16;2098903;28;20286;-69
2022/05/03 05:13:43;;;;;;;6.15;3.47;;;;;;;12.00;53.47;100632.19;2089474;28;20306;-68
2022/05/03 05:14:45;;;;;;;4.22;2.72;;;;;;;11.99;53.15;100641.38;2090009;28;20276;-69
2022/05/03 05:15:47;;;;;;;4.85;3.17;;;;;;;11.99;52.94;100635.19;2089759;28;20307;-69
2022/05/03 05:16:49;;;;;;;6.03;2.58;;;;;;;11.96;53.45;100639.25;2087972;28;20409;-69
2022/05/03 05:17:58;;;;;;;5.93;2.70;;;;;;;11.91;52.81;100639.28;2097244;28;20291;-69
2022/05/03 05:19:00;;;;;;;7.57;3.20;;;;;;;11.91;53.50;100643.88;2098136;28;20299;-69
2022/05/03 05:20:06;;;;;;;6.13;3.15;;;;;;;11.90;53.68;100631.50;2099122;28;20777;-69
2022/05/03 05:21:08;;;;;;;8.45;3.50;;;;;;;11.80;53.89;100632.38;2098906;28;20292;-68
2022/05/03 05:22:13;;;;;;;6.85;3.00;;;;;;;11.81;53.52;100633.97;2096700;28;20282;-69
2022/05/03 05:23:16;;;;;;;4.75;2.80;;;;;;;11.79;53.87;100636.13;2090718;28;20642;-70
2022/05/03 05:24:18;;;;;;;6.20;2.75;;;;;;;11.80;53.98;100633.19;2092644;28;20048;-69
2022/05/03 05:25:22;;;;;;;4.63;3.00;;;;;;;11.76;54.09;100636.75;2082082;28;20307;-69
2022/05/03 05:26:26;;;;;;;5.43;2.90;;;;;;;11.73;54.45;100632.72;2081550;28;20295;-68
2022/05/03 05:27:28;;;;;;;5.70;2.92;;;;;;;11.69;54.48;100630.84;2090634;28;20286;-68
2022/05/03 05:28:33;;;;;;;5.28;3.42;;;;;;;11.70;53.93;100627.91;2090307;28;20291;-68
2022/05/03 05:29:35;;;;;;;5.10;3.13;;;;;;;11.71;54.45;100636.78;2096049;28;20290;-68
2022/05/03 05:30:42;;;;;;;6.80;2.83;;;;;;;11.67;54.80;100625.78;2088470;28;20302;-69
2022/05/03 05:31:44;;;;;;;6.57;2.97;;;;;;;11.66;54.57;100621.44;2074406;28;20296;-70
2022/05/03 05:32:52;;;;;;;6.03;3.40;;;;;;;11.68;54.67;100629.25;2075044;28;20053;-69
2022/05/03 05:33:57;;;;;;;8.82;3.35;;;;;;;11.70;54.92;100627.09;2081062;28;20276;-68
2022/05/03 05:35:01;;;;;;;5.30;3.03;;;;;;;11.76;54.66;100624.06;2081841;28;20053;-69
2022/05/03 05:36:07;;;;;;;4.57;3.00;;;;;;;11.80;54.77;100627.00;2096995;28;20286;-68
2022/05/03 05:37:10;;;;;;;6.93;3.47;;;;;;;11.73;55.09;100629.22;2097735;28;20294;-69
2022/05/03 05:38:17;;;;;;;7.75;3.67;;;;;;;11.75;55.24;100630.53;2088102;28;20279;-68
2022/05/03 05:39:20;;;;;;;9.73;3.38;;;;;;;11.72;55.35;100631.09;2090743;28;20523;-68